Time;durP1;ratioP1;P1;durP2;ratioP2;P2;SDS_P1;SDS_P2;PMS_P1;PMS_P2;Temp;Humidity;BMP_temperature;BMP_pressure;BME280_temperature;BME280_humidity;BME280_pressure;Samples;Min_cycle;Max_cycle;Signal;HPM_P1;HPM_P2
2022/09/26 00:01:13;;;;;;;3.50;1.30;;;;;;;12.54;97.67;97798.97;5000589;28;20030;-60
2022/09/26 00:03:41;;;;;;;3.47;1.33;;;;;;;12.47;97.07;97791.03;5018459;28;20456;-60
2022/09/26 00:06:08;;;;;;;3.15;1.17;;;;;;;12.88;97.07;97845.41;4994057;28;20025;-59
2022/09/26 00:08:35;;;;;;;4.40;1.23;;;;;;;12.91;97.34;97839.03;5013727;28;20033;-59
2022/09/26 00:11:02;;;;;;;3.30;1.35;;;;;;;12.88;96.45;97834.97;5014474;28;20018;-61
2022/09/26 00:13:30;;;;;;;3.42;1.30;;;;;;;12.79;96.10;97832.63;4949793;28;20079;-59
2022/09/26 00:15:56;;;;;;;3.25;1.27;;;;;;;12.69;96.72;97809.41;5013038;28;20034;-60
2022/09/26 00:18:22;;;;;;;2.90;1.15;;;;;;;12.84;96.30;97832.91;5021497;28;20022;-58
2022/09/26 00:20:48;;;;;;;3.33;1.30;;;;;;;12.29;95.39;97749.63;5009516;28;20025;-60
2022/09/26 00:23:14;;;;;;;5.80;1.30;;;;;;;12.78;95.92;97821.41;5002742;28;20030;-60
2022/09/26 00:25:47;;;;;;;4.72;1.33;;;;;;;12.56;96.63;97799.59;5017747;28;20041;-60
2022/09/26 00:28:13;;;;;;;2.50;1.00;;;;;;;12.68;95.92;97819.03;5001486;28;20073;-59
2022/09/26 00:30:38;;;;;;;3.20;1.20;;;;;;;12.66;95.61;97812.38;5024246;28;20105;-60
2022/09/26 00:33:04;;;;;;;3.17;1.20;;;;;;;12.58;96.62;97805.44;5015206;28;20029;-60
2022/09/26 00:35:29;;;;;;;3.17;1.05;;;;;;;12.63;96.34;97803.13;5028237;28;20087;-60
2022/09/26 00:37:55;;;;;;;3.15;1.30;;;;;;;12.61;97.45;97801.66;5022580;28;20040;-59
2022/09/26 00:40:26;;;;;;;3.40;1.40;;;;;;;12.54;98.11;97792.91;5029107;28;20418;-60
2022/09/26 00:42:56;;;;;;;3.00;1.17;;;;;;;12.52;98.87;97790.47;5029549;28;20055;-60
2022/09/26 00:45:23;;;;;;;3.17;1.10;;;;;;;12.43;100.00;97786.34;5022643;28;20028;-59
2022/09/26 00:48:01;;;;;;;4.07;1.10;;;;;;;12.20;99.97;97740.28;5022853;28;20407;-61
2022/09/26 00:50:34;;;;;;;2.67;1.00;;;;;;;12.25;98.57;97732.75;5025204;28;20021;-59
2022/09/26 00:53:08;;;;;;;3.33;1.25;;;;;;;12.54;99.06;97774.66;5023307;28;20047;-59
2022/09/26 00:55:37;;;;;;;3.53;1.40;;;;;;;12.40;98.32;97763.25;5002093;28;20029;-59
2022/09/26 00:58:12;;;;;;;3.60;1.20;;;;;;;12.43;98.55;97768.91;5008492;28;20035;-59
2022/09/26 01:00:39;;;;;;;3.22;1.30;;;;;;;12.48;97.83;97770.97;5020933;28;20033;-59
2022/09/26 01:03:05;;;;;;;3.25;1.15;;;;;;;12.46;97.92;97759.91;5004134;28;20042;-59
2022/09/26 01:05:31;;;;;;;3.25;1.20;;;;;;;12.46;99.28;97763.31;5022490;28;20479;-60
2022/09/26 01:07:57;;;;;;;3.53;1.15;;;;;;;12.42;99.51;97756.06;5019397;28;20705;-59
2022/09/26 01:10:23;;;;;;;3.17;1.08;;;;;;;12.41;99.96;97755.25;5029769;28;20032;-59
2022/09/26 01:12:49;;;;;;;3.10;1.10;;;;;;;12.36;100.00;97752.34;5021757;28;20053;-59
2022/09/26 01:15:15;;;;;;;4.82;1.80;;;;;;;12.41;100.00;97746.59;5028973;28;20037;-60
2022/09/26 01:17:42;;;;;;;3.38;1.27;;;;;;;12.08;100.00;97708.63;5018488;28;20033;-59
2022/09/26 01:20:27;;;;;;;3.90;1.30;;;;;;;12.27;100.00;97741.19;5030030;28;20585;-60
2022/09/26 01:23:23;;;;;;;4.05;1.38;;;;;;;12.14;100.00;97707.09;5027300;28;20445;-60
2022/09/26 01:26:16;;;;;;;3.60;1.40;;;;;;;12.42;100.00;97740.41;5020284;28;20033;-59
2022/09/26 01:29:10;;;;;;;3.60;1.40;;;;;;;12.50;100.00;97735.09;5024890;28;20034;-60
2022/09/26 01:35:15;;;;;;;3.97;1.40;;;;;;;12.51;99.85;97739.34;5002284;28;20519;-60
2022/09/26 01:37:40;;;;;;;;;;;;;;;12.48;99.63;97734.47;5006049;28;20123;-59
2022/09/26 01:40:09;;;;;;;3.40;1.33;;;;;;;12.49;99.29;97734.28;5023226;28;20538;-60
2022/09/26 01:42:59;;;;;;;3.53;1.52;;;;;;;12.49;99.65;97725.69;5019508;28;20042;-59
2022/09/26 01:45:32;;;;;;;;;;;;;;;12.47;100.00;97727.66;5031004;28;20442;-59
2022/09/26 01:48:08;;;;;;;3.78;1.60;;;;;;;12.39;100.00;97723.31;5021445;28;19925;-59
2022/09/26 01:50:36;;;;;;;7.00;1.45;;;;;;;12.50;100.00;97722.91;5017897;28;20037;-59
2022/09/26 01:53:10;;;;;;;6.72;1.30;;;;;;;12.47;100.00;97722.44;5024526;28;20029;-59
2022/09/26 01:55:39;;;;;;;4.47;1.60;;;;;;;12.52;100.00;97716.66;5010866;28;20034;-60
2022/09/26 01:58:04;;;;;;;3.67;1.50;;;;;;;12.24;100.00;97672.97;5016936;28;20038;-60
2022/09/26 02:00:30;;;;;;;3.65;1.40;;;;;;;12.47;100.00;97719.84;5022093;28;20049;-58
2022/09/26 02:02:56;;;;;;;3.80;1.52;;;;;;;12.42;100.00;97722.97;5020333;28;20025;-59
2022/09/26 02:05:31;;;;;;;4.10;1.48;;;;;;;12.41;100.00;97715.31;5005340;28;20025;-60
2022/09/26 02:08:09;;;;;;;3.63;1.52;;;;;;;12.48;100.00;97721.44;4992229;28;20033;-58
2022/09/26 02:11:01;;;;;;;3.75;1.50;;;;;;;12.49;100.00;97718.66;5018115;28;20049;-60
2022/09/26 02:13:54;;;;;;;4.10;1.50;;;;;;;12.37;100.00;97693.19;5021373;28;20033;-59
2022/09/26 02:16:29;;;;;;;4.97;1.77;;;;;;;12.44;100.00;97696.72;4993397;28;20681;-59
2022/09/26 02:19:09;;;;;;;4.28;1.45;;;;;;;12.51;100.00;97702.84;5027186;28;20072;-58
2022/09/26 02:21:35;;;;;;;3.38;1.58;;;;;;;12.43;100.00;97700.28;5017174;28;20034;-59
2022/09/26 02:24:00;;;;;;;3.30;1.30;;;;;;;12.42;100.00;97704.72;5023653;28;20056;-59
2022/09/26 02:26:26;;;;;;;3.90;1.60;;;;;;;12.37;100.00;97695.81;5018421;28;20492;-59
2022/09/26 02:28:51;;;;;;;3.38;1.50;;;;;;;12.38;100.00;97687.81;5019971;28;20488;-59
2022/09/26 02:31:21;;;;;;;4.05;1.67;;;;;;;12.38;100.00;97687.81;5017322;28;20041;-58
2022/09/26 02:33:51;;;;;;;4.30;1.50;;;;;;;12.08;100.00;97653.06;5020201;28;20384;-59
2022/09/26 02:36:17;;;;;;;3.78;1.45;;;;;;;12.30;100.00;97693.94;5020811;28;20026;-59
2022/09/26 02:38:43;;;;;;;3.78;1.55;;;;;;;12.18;100.00;97668.47;5020469;28;20042;-59
2022/09/26 02:41:12;;;;;;;4.55;1.80;;;;;;;12.38;100.00;97680.00;5017458;28;20048;-59
2022/09/26 02:43:37;;;;;;;4.25;1.60;;;;;;;12.37;100.00;97680.97;5018559;28;20037;-58
2022/09/26 02:46:21;;;;;;;4.65;1.75;;;;;;;12.26;100.00;97670.97;5025558;28;20548;-60
2022/09/26 02:48:59;;;;;;;3.63;1.40;;;;;;;12.36;100.00;97683.75;5002863;28;20021;-59
2022/09/26 02:51:44;;;;;;;3.97;1.55;;;;;;;12.28;100.00;97676.81;5027502;28;20532;-58
2022/09/26 02:54:41;;;;;;;3.83;1.60;;;;;;;12.21;100.00;97674.16;5014627;28;20060;-59
2022/09/26 02:57:34;;;;;;;3.78;1.67;;;;;;;12.27;100.00;97681.25;5018922;28;20050;-59
2022/09/26 03:00:08;;;;;;;5.00;1.42;;;;;;;12.07;100.00;97635.84;5035899;28;20029;-60
2022/09/26 03:02:40;;;;;;;3.65;1.55;;;;;;;12.29;100.00;97676.66;5018677;28;20025;-60
2022/09/26 03:05:13;;;;;;;3.67;1.50;;;;;;;12.31;100.00;97679.09;5021573;28;20037;-60
2022/09/26 03:07:45;;;;;;;3.30;1.40;;;;;;;12.26;100.00;97681.41;4994339;28;20040;-62
2022/09/26 03:10:12;;;;;;;3.40;1.50;;;;;;;11.97;100.00;97636.06;5003584;28;20536;-59
2022/09/26 03:12:38;;;;;;;3.63;1.50;;;;;;;12.16;100.00;97675.66;5027294;28;20107;-59
2022/09/26 03:15:05;;;;;;;3.88;1.52;;;;;;;12.16;100.00;97671.25;5015610;28;20030;-59
2022/09/26 03:17:33;;;;;;;4.03;1.77;;;;;;;12.18;100.00;97681.50;5024065;28;20123;-59
2022/09/26 03:20:13;;;;;;;5.55;1.48;;;;;;;12.25;100.00;97678.00;5026363;28;20093;-59
2022/09/26 03:22:39;;;;;;;3.95;1.80;;;;;;;12.00;100.00;97640.94;5011166;28;20783;-60
2022/09/26 03:25:05;;;;;;;3.70;1.27;;;;;;;12.00;100.00;97627.13;5010222;28;20566;-58
2022/09/26 03:27:33;;;;;;;4.78;1.52;;;;;;;12.23;100.00;97671.34;5047717;28;20222;-59
2022/09/26 03:29:58;;;;;;;4.18;1.60;;;;;;;12.16;100.00;97675.66;5025502;28;20029;-59
2022/09/26 03:32:24;;;;;;;4.65;1.60;;;;;;;11.61;100.00;97589.84;5020532;28;20044;-59
2022/09/26 03:34:50;;;;;;;4.20;1.73;;;;;;;12.11;100.00;97657.94;5027506;28;20682;-59
2022/09/26 03:37:16;;;;;;;3.35;1.20;;;;;;;12.05;100.00;97656.84;5021047;28;20056;-60
2022/09/26 03:39:42;;;;;;;3.72;1.58;;;;;;;12.14;100.00;97664.59;5018007;28;20493;-59
2022/09/26 03:42:09;;;;;;;3.40;1.20;;;;;;;12.02;100.00;97653.78;5021078;28;20040;-59
2022/09/26 03:44:34;;;;;;;3.42;1.50;;;;;;;11.67;100.00;97614.34;5017091;28;20521;-59
2022/09/26 03:47:00;;;;;;;3.90;1.60;;;;;;;12.00;100.00;97661.78;5024039;28;20044;-58
2022/09/26 03:49:25;;;;;;;3.65;1.40;;;;;;;12.01;100.00;97663.41;5013505;28;20034;-60
2022/09/26 03:51:51;;;;;;;3.45;1.35;;;;;;;12.02;100.00;97664.22;5021461;28;20022;-59
2022/09/26 03:54:16;;;;;;;4.13;1.70;;;;;;;12.04;100.00;97657.84;5018843;28;20056;-58
2022/09/26 03:56:41;;;;;;;4.88;1.73;;;;;;;12.12;100.00;97651.75;5021137;28;20029;-59
2022/09/26 03:59:07;;;;;;;3.80;1.52;;;;;;;12.00;100.00;97643.53;5028216;28;20041;-59
2022/09/26 04:01:33;;;;;;;4.30;1.50;;;;;;;11.97;100.00;97643.91;5023548;28;20477;-59
2022/09/26 04:03:58;;;;;;;4.28;1.60;;;;;;;11.82;100.00;97622.19;5024890;28;20030;-60
2022/09/26 04:06:24;;;;;;;3.08;1.33;;;;;;;11.92;100.00;97634.03;5004252;28;20104;-60
2022/09/26 04:08:51;;;;;;;3.90;1.60;;;;;;;11.97;100.00;97637.88;5023694;28;20033;-59
2022/09/26 04:11:19;;;;;;;3.90;1.50;;;;;;;11.71;100.00;97600.78;5017497;28;20667;-59
2022/09/26 04:13:45;;;;;;;3.38;1.55;;;;;;;11.91;100.00;97640.19;5011326;28;20735;-60
2022/09/26 04:16:10;;;;;;;4.40;1.38;;;;;;;11.80;100.00;97624.97;5024855;28;20040;-60
2022/09/26 04:18:35;;;;;;;3.65;1.50;;;;;;;11.49;100.00;97586.03;5023584;28;20038;-61
2022/09/26 04:21:06;;;;;;;4.72;1.60;;;;;;;11.86;100.00;97632.06;5024820;28;20029;-59
2022/09/26 04:23:36;;;;;;;3.88;1.40;;;;;;;11.92;100.00;97635.81;5027591;28;20174;-60
2022/09/26 04:26:07;;;;;;;5.70;1.50;;;;;;;11.84;100.00;97630.63;5021203;28;20033;-58
2022/09/26 04:28:34;;;;;;;3.22;1.38;;;;;;;11.77;100.00;97632.34;5022332;28;20120;-61
2022/09/26 04:31:00;;;;;;;3.33;1.35;;;;;;;11.67;100.00;97619.56;5020710;28;20082;-59
2022/09/26 04:33:26;;;;;;;3.40;1.17;;;;;;;11.78;100.00;97631.34;5024597;28;20072;-60
2022/09/26 04:35:51;;;;;;;3.15;1.30;;;;;;;11.74;100.00;97631.69;5001248;28;20029;-59
2022/09/26 04:38:17;;;;;;;3.67;1.50;;;;;;;11.76;100.00;97626.31;5005061;28;20033;-60
2022/09/26 04:40:43;;;;;;;2.97;1.17;;;;;;;11.77;100.00;97632.34;5021214;28;20489;-56
2022/09/26 04:43:09;;;;;;;4.32;1.50;;;;;;;11.70;100.00;97630.44;5023512;28;20041;-60
2022/09/26 04:45:34;;;;;;;3.15;1.30;;;;;;;11.71;100.00;97632.03;5005082;28;20041;-59
2022/09/26 04:48:00;;;;;;;3.05;1.20;;;;;;;11.78;100.00;97637.38;5021273;28;20053;-59
2022/09/26 04:50:26;;;;;;;3.13;1.30;;;;;;;11.54;100.00;97594.13;5018340;28;20040;-61
2022/09/26 04:52:51;;;;;;;3.30;1.20;;;;;;;11.74;100.00;97625.69;5005159;28;20092;-60
2022/09/26 04:55:17;;;;;;;3.63;1.42;;;;;;;11.67;100.00;97628.19;5020997;28;20043;-59
2022/09/26 04:57:42;;;;;;;3.33;1.20;;;;;;;11.63;100.00;97613.09;5020471;28;20022;-59
2022/09/26 05:00:10;;;;;;;3.22;1.20;;;;;;;11.63;100.00;97629.53;5012178;28;20161;-59
2022/09/26 05:02:35;;;;;;;3.28;1.42;;;;;;;11.41;100.00;97589.50;5023315;28;20067;-59
2022/09/26 05:05:00;;;;;;;2.85;1.17;;;;;;;11.66;100.00;97617.94;5015605;28;20112;-61
2022/09/26 05:07:30;;;;;;;3.97;1.38;;;;;;;11.65;100.00;97619.72;5024182;28;20798;-61
2022/09/26 05:09:55;;;;;;;3.78;1.50;;;;;;;11.36;100.00;97568.41;5021165;28;20452;-59
2022/09/26 05:12:21;;;;;;;4.00;1.30;;;;;;;11.61;100.00;97615.03;5026513;28;20038;-60
2022/09/26 05:14:46;;;;;;;3.90;1.50;;;;;;;11.34;100.00;97578.97;5005009;28;20044;-60
2022/09/26 05:17:12;;;;;;;4.38;1.40;;;;;;;11.69;100.00;97630.63;5019408;28;20029;-59
2022/09/26 05:19:37;;;;;;;3.17;1.38;;;;;;;11.69;100.00;97636.63;5030044;28;20053;-61
2022/09/26 05:22:03;;;;;;;3.55;1.50;;;;;;;11.68;100.00;97622.00;5003021;28;20599;-60
2022/09/26 05:27:14;;;;;;;3.78;1.25;;;;;;;11.76;100.00;97638.53;5021280;28;20063;-60
2022/09/26 05:29:39;;;;;;;4.00;1.58;;;;;;;11.73;100.00;97629.25;5020329;28;20029;-59
2022/09/26 05:32:05;;;;;;;3.05;1.30;;;;;;;11.65;100.00;97640.56;5019676;28;20036;-59
2022/09/26 05:34:30;;;;;;;3.15;1.27;;;;;;;11.67;100.00;97643.81;5033012;28;20060;-59
2022/09/26 05:36:56;;;;;;;3.38;1.48;;;;;;;11.60;100.00;97635.06;5021223;28;20116;-60
2022/09/26 05:42:14;;;;;;;3.58;1.63;;;;;;;11.67;100.00;97643.81;5005790;28;20038;-60
2022/09/26 05:44:39;;;;;;;4.03;1.60;;;;;;;11.71;100.00;97636.44;5010000;28;20721;-60
2022/09/26 05:47:06;;;;;;;3.33;1.48;;;;;;;11.87;100.00;97636.31;5014294;28;20515;-60
2022/09/26 05:49:34;;;;;;;3.38;1.30;;;;;;;11.71;100.00;97600.00;5020198;28;20667;-60
2022/09/26 05:52:02;;;;;;;3.60;1.30;;;;;;;11.66;100.00;97597.09;5016323;28;20060;-60
2022/09/26 05:54:27;;;;;;;3.65;1.40;;;;;;;11.82;100.00;97640.44;5016428;28;20032;-59
2022/09/26 05:56:52;;;;;;;4.07;1.60;;;;;;;11.92;100.00;97644.44;5018783;28;20029;-59
2022/09/26 05:59:18;;;;;;;3.92;1.60;;;;;;;11.74;100.00;97597.84;5021815;28;20551;-60
2022/09/26 06:01:45;;;;;;;4.80;1.65;;;;;;;12.04;100.00;97644.00;5019310;28;20129;-59
2022/09/26 06:04:11;;;;;;;4.15;1.58;;;;;;;12.03;100.00;97645.81;5021542;28;20116;-61
2022/09/26 06:06:36;;;;;;;3.63;1.30;;;;;;;11.76;100.00;97597.69;5015236;28;20035;-59
2022/09/26 06:09:02;;;;;;;3.65;1.35;;;;;;;11.99;100.00;97641.13;5013265;28;20026;-61
2022/09/26 06:11:30;;;;;;;3.20;1.30;;;;;;;11.98;100.00;97635.09;5018303;28;20041;-61
2022/09/26 06:13:58;;;;;;;4.35;1.42;;;;;;;11.97;100.00;97641.28;5016845;28;20108;-60
2022/09/26 06:16:23;;;;;;;3.42;1.40;;;;;;;11.98;100.00;97642.91;4994687;28;20037;-60
2022/09/26 06:18:51;;;;;;;3.35;1.45;;;;;;;11.90;100.00;97643.81;5027661;28;20025;-60
2022/09/26 06:21:18;;;;;;;3.95;1.50;;;;;;;11.32;100.00;97567.94;5018024;28;20116;-59
2022/09/26 06:23:43;;;;;;;4.68;1.38;;;;;;;11.88;100.00;97643.16;5017580;28;20026;-60
2022/09/26 06:26:14;;;;;;;5.70;1.42;;;;;;;11.84;100.00;97651.47;5015575;28;20091;-61
2022/09/26 06:28:40;;;;;;;3.60;1.20;;;;;;;11.77;100.00;97656.56;5019303;28;20121;-60
2022/09/26 06:31:13;;;;;;;3.30;1.30;;;;;;;11.75;100.00;97650.72;5020320;28;20046;-59
2022/09/26 06:33:39;;;;;;;3.15;1.20;;;;;;;11.75;100.00;97642.91;4999736;28;20120;-60
2022/09/26 06:36:06;;;;;;;3.90;1.40;;;;;;;11.72;100.00;97646.69;5004153;28;20033;-59
2022/09/26 06:38:32;;;;;;;5.15;1.67;;;;;;;11.75;100.00;97637.72;5001369;28;20124;-59
2022/09/26 06:40:57;;;;;;;3.58;1.30;;;;;;;11.85;100.00;97642.69;4999323;28;20100;-59
2022/09/26 06:43:23;;;;;;;4.10;1.45;;;;;;;11.64;100.00;97602.47;5018968;28;20025;-59
2022/09/26 06:45:48;;;;;;;3.90;1.60;;;;;;;11.93;100.00;97642.63;5021590;28;20484;-59
2022/09/26 06:48:18;;;;;;;3.90;1.45;;;;;;;11.93;100.00;97640.84;5002057;28;20026;-61
2022/09/26 06:50:43;;;;;;;4.00;1.30;;;;;;;11.69;100.00;97605.38;5036337;28;20018;-60
2022/09/26 06:53:09;;;;;;;4.88;1.60;;;;;;;12.02;100.00;97646.78;5021126;28;20025;-60
2022/09/26 06:55:35;;;;;;;4.47;1.40;;;;;;;12.05;100.00;97648.25;4999283;28;20063;-60
2022/09/26 06:58:00;;;;;;;2.80;1.10;;;;;;;12.03;100.00;97648.41;5011223;28;20760;-59
2022/09/26 07:00:28;;;;;;;3.25;1.30;;;;;;;12.10;100.00;97644.13;5021817;28;20033;-59
2022/09/26 07:02:54;;;;;;;2.85;1.00;;;;;;;12.10;100.00;97631.09;5013496;28;20036;-59
2022/09/26 07:05:22;;;;;;;3.80;1.20;;;;;;;11.96;100.00;97616.25;5021332;28;20116;-59
2022/09/26 07:07:47;;;;;;;3.42;1.00;;;;;;;11.87;100.00;97612.88;5015277;28;20025;-59
2022/09/26 07:10:15;;;;;;;3.35;1.10;;;;;;;12.14;100.00;97656.75;5016816;28;20080;-59
2022/09/26 07:12:42;;;;;;;3.60;1.40;;;;;;;12.18;100.00;97648.44;5019738;28;20024;-59
2022/09/26 07:15:18;;;;;;;3.38;1.20;;;;;;;12.20;100.00;97650.84;5011670;28;20487;-59
2022/09/26 07:17:46;;;;;;;3.30;1.40;;;;;;;12.08;100.00;97625.25;5027606;28;20451;-59
2022/09/26 07:20:17;;;;;;;3.00;1.20;;;;;;;12.03;100.00;97652.78;5016919;28;20500;-58
2022/09/26 07:22:43;;;;;;;3.15;1.27;;;;;;;11.83;100.00;97632.44;5014791;28;20033;-59
2022/09/26 07:25:10;;;;;;;4.45;1.30;;;;;;;12.00;100.00;97640.94;5001816;28;20037;-59
2022/09/26 07:27:36;;;;;;;3.20;1.25;;;;;;;11.74;100.00;97618.69;5001379;28;20029;-58
2022/09/26 07:30:03;;;;;;;3.03;1.30;;;;;;;12.06;100.00;97652.44;5021931;28;20028;-59
2022/09/26 07:32:30;;;;;;;3.42;1.20;;;;;;;12.08;100.00;97647.88;5032909;28;20024;-60
2022/09/26 07:34:58;;;;;;;3.90;1.30;;;;;;;12.01;100.00;97646.94;5018537;28;20025;-59
2022/09/26 07:37:24;;;;;;;3.90;1.30;;;;;;;11.96;100.00;97647.50;5020860;28;20029;-58
2022/09/26 07:39:49;;;;;;;4.20;1.25;;;;;;;11.99;100.00;97651.53;5019556;28;20395;-58
2022/09/26 07:42:16;;;;;;;3.83;1.63;;;;;;;11.64;100.00;97610.28;5019764;28;20030;-59
2022/09/26 07:44:43;;;;;;;3.58;1.40;;;;;;;11.85;100.00;97640.09;5018738;28;20373;-59
2022/09/26 07:50:12;;;;;;;3.10;1.17;;;;;;;11.86;100.00;97654.72;5019056;28;20044;-60
2022/09/26 07:52:42;;;;;;;3.25;1.10;;;;;;;11.63;100.00;97619.09;5018778;28;20436;-59
2022/09/26 07:55:09;;;;;;;3.95;1.20;;;;;;;11.96;100.00;97654.50;5016394;28;20022;-59
2022/09/26 07:57:34;;;;;;;4.47;1.50;;;;;;;12.02;100.00;97657.19;5014605;28;20250;-58
2022/09/26 08:00:06;;;;;;;3.65;1.35;;;;;;;11.81;99.86;97618.78;5014347;28;20487;-59
2022/09/26 08:02:34;;;;;;;3.40;1.35;;;;;;;12.12;100.00;97654.38;5019228;28;20033;-58
2022/09/26 08:05:04;;;;;;;2.70;1.00;;;;;;;12.08;100.00;97622.66;5019971;28;20408;-59
2022/09/26 08:07:30;;;;;;;3.85;1.70;;;;;;;12.27;99.65;97656.97;5001963;28;20408;-59
2022/09/26 08:09:57;;;;;;;9.27;4.18;;;;;;;12.17;99.60;97651.22;5020465;28;20030;-60
2022/09/26 08:12:24;;;;;;;4.35;1.73;;;;;;;12.20;98.57;97653.47;4998541;28;20029;-59
2022/09/26 08:14:51;;;;;;;3.30;1.20;;;;;;;12.30;98.09;97649.63;5020424;28;20079;-59
2022/09/26 08:17:18;;;;;;;3.00;1.00;;;;;;;12.25;97.05;97648.53;5016362;28;20033;-59
2022/09/26 08:19:43;;;;;;;2.78;1.10;;;;;;;12.15;96.85;97630.53;5018171;28;20048;-58
2022/09/26 08:22:10;;;;;;;2.58;1.00;;;;;;;12.31;97.30;97651.22;5002364;28;20033;-59
2022/09/26 08:24:36;;;;;;;5.28;1.20;;;;;;;12.40;97.73;97661.56;5016636;28;20495;-58
2022/09/26 08:27:01;;;;;;;3.53;1.10;;;;;;;12.05;99.14;97609.97;5003505;28;20120;-58
2022/09/26 08:29:31;;;;;;;3.80;1.00;;;;;;;12.20;96.22;97638.63;5011683;28;20037;-59
2022/09/26 08:31:57;;;;;;;2.30;0.80;;;;;;;12.37;95.46;97654.09;5004081;28;20053;-60
2022/09/26 08:34:22;;;;;;;3.45;1.10;;;;;;;12.40;95.74;97644.13;5002546;28;20034;-58
2022/09/26 08:36:53;;;;;;;3.53;0.80;;;;;;;12.36;94.93;97644.66;5015237;28;20025;-58
2022/09/26 08:39:20;;;;;;;2.55;0.88;;;;;;;12.33;95.60;97648.44;5015545;28;20057;-59
2022/09/26 08:42:27;;;;;;;2.38;0.70;;;;;;;12.25;94.07;97643.31;5001759;28;20026;-58
2022/09/26 08:48:38;;;;;;;2.70;1.10;;;;;;;12.50;93.04;97634.25;5012711;28;20582;-59
2022/09/26 08:51:15;;;;;;;2.45;0.88;;;;;;;12.26;92.88;97588.38;5012331;28;20053;-59
2022/09/26 08:53:58;;;;;;;2.97;1.17;;;;;;;12.57;94.16;97617.88;5022382;28;20104;-60
2022/09/26 08:56:36;;;;;;;2.00;0.77;;;;;;;12.43;93.86;97619.47;5004809;28;20033;-59
2022/09/26 08:59:04;;;;;;;4.53;1.10;;;;;;;12.45;93.52;97613.13;5023748;28;20032;-59
2022/09/26 09:01:34;;;;;;;3.78;1.40;;;;;;;12.49;92.84;97613.56;5020573;28;20079;-59
2022/09/26 09:04:26;;;;;;;3.47;1.10;;;;;;;12.57;92.12;97605.63;5023052;28;20029;-59
2022/09/26 09:06:57;;;;;;;4.03;1.10;;;;;;;12.61;91.23;97601.69;5020037;28;20037;-59
2022/09/26 09:09:23;;;;;;;3.65;0.95;;;;;;;12.68;91.25;97610.38;5024928;28;20118;-59
2022/09/26 09:11:54;;;;;;;3.00;0.77;;;;;;;12.82;92.14;97603.53;5011998;28;20488;-60
2022/09/26 09:14:49;;;;;;;3.55;1.00;;;;;;;12.75;90.60;97565.31;5024530;28;20663;-58
2022/09/26 09:17:30;;;;;;;3.17;0.90;;;;;;;13.31;90.04;97603.88;5037183;28;20131;-59
2022/09/26 09:20:04;;;;;;;2.03;0.82;;;;;;;13.54;86.49;97591.38;5015476;28;20071;-58
2022/09/26 09:22:51;;;;;;;1.90;0.77;;;;;;;13.63;85.43;97592.06;5016980;28;20033;-59
2022/09/26 09:25:42;;;;;;;2.67;1.02;;;;;;;13.72;86.72;97579.69;5023298;28;20116;-60
2022/09/26 09:28:19;;;;;;;2.70;1.00;;;;;;;13.76;86.39;97575.69;5012875;28;20037;-59
2022/09/26 09:31:07;;;;;;;2.50;0.90;;;;;;;13.85;85.75;97577.16;5016610;28;20147;-60
2022/09/26 09:33:40;;;;;;;3.58;1.00;;;;;;;13.91;86.13;97578.19;5018589;28;20025;-59
2022/09/26 09:36:13;;;;;;;3.75;1.00;;;;;;;13.90;86.39;97564.34;5019282;28;20079;-59
2022/09/26 09:38:42;;;;;;;2.58;1.00;;;;;;;14.02;87.69;97562.00;5021379;28;20117;-59
2022/09/26 09:41:14;;;;;;;3.30;1.20;;;;;;;14.06;87.10;97557.22;5012148;28;20387;-59
2022/09/26 09:43:46;;;;;;;2.25;0.70;;;;;;;13.98;86.18;97558.13;5011924;28;20076;-60
2022/09/26 09:46:27;;;;;;;2.55;0.80;;;;;;;13.97;87.07;97538.25;5017333;28;20461;-60
2022/09/26 09:48:57;;;;;;;3.95;0.80;;;;;;;14.11;87.62;97534.72;5015584;28;20151;-59
2022/09/26 09:51:22;;;;;;;;;;;;;;;14.18;85.08;97532.94;5019677;28;20052;-60
2022/09/26 09:53:59;;;;;;;3.77;1.00;;;;;;;14.29;84.45;97533.38;5017467;28;19965;-59
2022/09/26 09:56:30;;;;;;;1.58;0.70;;;;;;;14.31;83.71;97513.88;5018776;28;20271;-59
2022/09/26 09:59:08;;;;;;;1.63;0.63;;;;;;;14.34;82.08;97494.38;5014347;28;20040;-59
2022/09/26 10:01:40;;;;;;;2.67;0.82;;;;;;;14.68;81.63;97530.13;5017353;28;20065;-58
2022/09/26 10:04:14;;;;;;;2.00;0.68;;;;;;;14.59;81.28;97534.72;5020476;28;20099;-58
2022/09/26 10:06:40;;;;;;;3.42;0.73;;;;;;;14.39;81.85;97503.25;5012497;28;20484;-60
2022/09/26 10:09:40;;;;;;;2.05;0.70;;;;;;;14.88;80.08;97532.78;5018497;28;20037;-59
2022/09/26 10:12:15;;;;;;;3.30;0.80;;;;;;;14.93;79.37;97517.31;5013864;28;20021;-59
2022/09/26 10:14:53;;;;;;;1.88;0.85;;;;;;;15.08;77.58;97521.56;5008738;28;20103;-59
2022/09/26 10:17:20;;;;;;;3.03;0.68;;;;;;;15.06;75.90;97521.75;5016478;28;20398;-59
2022/09/26 10:19:46;;;;;;;2.10;0.70;;;;;;;15.07;75.70;97520.72;5016781;28;20068;-59
2022/09/26 10:22:28;;;;;;;1.40;0.60;;;;;;;15.18;76.27;97514.91;5016574;28;20107;-59
2022/09/26 10:25:16;;;;;;;2.10;0.80;;;;;;;15.12;76.20;97486.13;5016386;28;20033;-60
2022/09/26 10:27:52;;;;;;;1.90;0.70;;;;;;;15.17;74.74;97494.97;5002399;28;21125;-60
2022/09/26 10:30:17;;;;;;;1.42;0.60;;;;;;;15.34;74.43;97512.91;5013914;28;20472;-59
2022/09/26 10:32:49;;;;;;;2.03;0.70;;;;;;;15.40;73.02;97511.28;5021827;28;20028;-59
2022/09/26 10:35:17;;;;;;;2.17;0.60;;;;;;;15.54;74.19;97515.50;5002064;28;20041;-59
2022/09/26 10:37:49;;;;;;;2.05;0.80;;;;;;;15.53;72.58;97514.72;5020665;28;20034;-60
2022/09/26 10:40:44;;;;;;;1.55;0.60;;;;;;;15.71;72.34;97513.25;5017267;28;20149;-60
2022/09/26 10:43:27;;;;;;;1.63;0.63;;;;;;;15.72;70.45;97514.88;5004054;28;20431;-60
2022/09/26 10:46:05;;;;;;;2.28;0.70;;;;;;;15.79;72.43;97504.41;5008076;28;20144;-59
2022/09/26 10:48:55;;;;;;;1.75;0.50;;;;;;;15.51;70.20;97466.94;5020077;28;20033;-59
2022/09/26 10:51:39;;;;;;;2.00;0.73;;;;;;;15.72;73.51;97507.81;5018364;28;20021;-59
2022/09/26 10:54:15;;;;;;;2.08;0.60;;;;;;;15.92;67.89;97510.44;5020231;28;20831;-60
2022/09/26 10:56:46;;;;;;;1.70;0.60;;;;;;;15.84;69.43;97463.47;5029734;28;20497;-60
2022/09/26 10:59:13;;;;;;;1.65;0.60;;;;;;;16.02;68.37;97491.63;5009588;28;20029;-60
2022/09/26 11:01:42;;;;;;;1.77;0.60;;;;;;;16.10;62.25;97485.38;5017949;28;20025;-60
2022/09/26 11:07:07;;;;;;;2.15;0.70;;;;;;;16.27;65.26;97476.00;5013864;28;20125;-60
2022/09/26 11:09:34;;;;;;;2.17;0.70;;;;;;;16.50;66.28;97474.69;5018413;28;20025;-60
2022/09/26 11:12:22;;;;;;;1.45;0.47;;;;;;;16.50;66.00;97456.31;5018197;28;20030;-60
2022/09/26 11:14:52;;;;;;;1.35;0.60;;;;;;;16.53;63.74;97450.66;5013825;28;20037;-59
2022/09/26 11:17:18;;;;;;;1.92;0.70;;;;;;;16.66;67.74;97450.56;5018563;28;20124;-60
2022/09/26 11:19:49;;;;;;;4.25;0.63;;;;;;;16.72;68.51;97451.56;5007367;28;20461;-59
2022/09/26 11:22:29;;;;;;;1.58;0.45;;;;;;;16.80;64.17;97445.25;5019464;28;20030;-60
2022/09/26 11:25:06;;;;;;;2.00;0.65;;;;;;;16.78;64.81;97440.22;5009992;28;20461;-61
2022/09/26 11:27:45;;;;;;;2.10;0.80;;;;;;;16.75;65.69;97442.44;5016428;28;20082;-61
2022/09/26 11:30:19;;;;;;;2.58;0.90;;;;;;;16.81;66.58;97425.84;5020981;28;20090;-60
2022/09/26 11:32:55;;;;;;;1.65;0.60;;;;;;;16.73;63.51;97385.72;5013659;28;20041;-60
2022/09/26 11:35:42;;;;;;;2.10;0.70;;;;;;;17.08;62.99;97408.91;5019716;28;20037;-58
2022/09/26 11:38:23;;;;;;;1.92;0.60;;;;;;;17.31;61.66;97407.47;4982485;28;20065;-58
2022/09/26 11:41:15;;;;;;;1.52;0.57;;;;;;;17.51;59.91;97406.47;5016044;28;20041;-58
2022/09/26 11:44:03;;;;;;;1.58;0.60;;;;;;;17.52;60.54;97397.56;5021882;28;20813;-57
2022/09/26 11:47:17;;;;;;;1.25;0.50;;;;;;;17.69;58.06;97403.84;5009346;28;20033;-58
2022/09/26 11:49:47;;;;;;;2.30;0.55;;;;;;;17.84;57.53;97387.69;4998634;28;20079;-58
2022/09/26 11:52:49;;;;;;;1.35;0.50;;;;;;;18.00;56.18;97394.22;5020565;28;20040;-58
2022/09/26 11:55:39;;;;;;;1.52;0.60;;;;;;;18.04;55.46;97385.66;5016839;28;20104;-59
2022/09/26 11:58:26;;;;;;;2.05;0.50;;;;;;;18.05;53.47;97376.75;5017404;28;20033;-57
2022/09/26 12:01:15;;;;;;;0.82;0.40;;;;;;;17.99;54.03;97361.03;5020957;28;20454;-57
2022/09/26 12:03:56;;;;;;;4.33;0.60;;;;;;;17.85;54.64;97328.84;5031131;28;20033;-58
2022/09/26 12:06:35;;;;;;;1.45;0.60;;;;;;;18.09;55.40;97361.31;5015970;28;20291;-57